sensor_id;sensor_type;location;lat;lon;timestamp;P1;durP1;ratioP1;P2;durP2;ratioP2
20179;SDS011;10249;48.900;9.090;2023-04-03T00:02:03;11.40;;;11.00;;
20179;SDS011;10249;48.900;9.090;2023-04-03T00:04:30;11.70;;;11.30;;
20179;SDS011;10249;48.900;9.090;2023-04-03T00:06:58;12.03;;;11.63;;
20179;SDS011;10249;48.900;9.090;2023-04-03T00:09:25;11.70;;;11.30;;
20179;SDS011;10249;48.900;9.090;2023-04-03T00:11:52;11.70;;;11.30;;
20179;SDS011;10249;48.900;9.090;2023-04-03T00:14:19;11.80;;;11.40;;
20179;SDS011;10249;48.900;9.090;2023-04-03T00:16:46;11.63;;;11.23;;
20179;SDS011;10249;48.900;9.090;2023-04-03T00:19:14;11.60;;;11.20;;
20179;SDS011;10249;48.900;9.090;2023-04-03T00:21:41;11.80;;;11.40;;
20179;SDS011;10249;48.900;9.090;2023-04-03T00:24:09;11.50;;;11.10;;
20179;SDS011;10249;48.900;9.090;2023-04-03T00:26:36;12.00;;;11.60;;
20179;SDS011;10249;48.900;9.090;2023-04-03T00:29:03;11.87;;;11.47;;
20179;SDS011;10249;48.900;9.090;2023-04-03T00:31:30;12.00;;;11.60;;
20179;SDS011;10249;48.900;9.090;2023-04-03T00:33:57;12.10;;;11.60;;
20179;SDS011;10249;48.900;9.090;2023-04-03T00:36:25;11.90;;;11.50;;
20179;SDS011;10249;48.900;9.090;2023-04-03T00:38:52;11.63;;;11.23;;
20179;SDS011;10249;48.900;9.090;2023-04-03T00:41:20;12.00;;;11.60;;
20179;SDS011;10249;48.900;9.090;2023-04-03T00:43:47;11.50;;;11.10;;
20179;SDS011;10249;48.900;9.090;2023-04-03T00:46:14;11.60;;;11.20;;
20179;SDS011;10249;48.900;9.090;2023-04-03T00:48:42;11.67;;;11.27;;
20179;SDS011;10249;48.900;9.090;2023-04-03T00:51:11;11.67;;;11.27;;
20179;SDS011;10249;48.900;9.090;2023-04-03T00:53:40;11.70;;;11.30;;
20179;SDS011;10249;48.900;9.090;2023-04-03T00:56:09;11.87;;;11.47;;
20179;SDS011;10249;48.900;9.090;2023-04-03T00:58:39;11.70;;;11.30;;
20179;SDS011;10249;48.900;9.090;2023-04-03T01:01:07;13.03;;;12.53;;
20179;SDS011;10249;48.900;9.090;2023-04-03T01:03:35;11.60;;;11.20;;
20179;SDS011;10249;48.900;9.090;2023-04-03T01:06:02;11.90;;;11.50;;
20179;SDS011;10249;48.900;9.090;2023-04-03T01:08:30;11.60;;;11.20;;
20179;SDS011;10249;48.900;9.090;2023-04-03T01:10:57;11.47;;;11.07;;
20179;SDS011;10249;48.900;9.090;2023-04-03T01:13:25;11.40;;;11.00;;
20179;SDS011;10249;48.900;9.090;2023-04-03T01:15:54;11.37;;;10.97;;
20179;SDS011;10249;48.900;9.090;2023-04-03T01:18:21;11.33;;;10.93;;
20179;SDS011;10249;48.900;9.090;2023-04-03T01:20:57;11.50;;;11.10;;
20179;SDS011;10249;48.900;9.090;2023-04-03T01:23:32;11.50;;;11.10;;
20179;SDS011;10249;48.900;9.090;2023-04-03T01:26:01;11.50;;;11.10;;
20179;SDS011;10249;48.900;9.090;2023-04-03T01:28:30;11.67;;;11.27;;
20179;SDS011;10249;48.900;9.090;2023-04-03T01:31:00;11.60;;;11.20;;
20179;SDS011;10249;48.900;9.090;2023-04-03T01:33:30;11.57;;;11.13;;
20179;SDS011;10249;48.900;9.090;2023-04-03T01:35:57;11.43;;;11.03;;
20179;SDS011;10249;48.900;9.090;2023-04-03T01:38:25;11.70;;;11.30;;
20179;SDS011;10249;48.900;9.090;2023-04-03T01:40:52;11.53;;;11.13;;
20179;SDS011;10249;48.900;9.090;2023-04-03T01:43:19;11.80;;;11.40;;
20179;SDS011;10249;48.900;9.090;2023-04-03T01:45:46;11.23;;;10.83;;
20179;SDS011;10249;48.900;9.090;2023-04-03T01:48:14;11.20;;;10.80;;
20179;SDS011;10249;48.900;9.090;2023-04-03T01:50:42;11.53;;;11.13;;
20179;SDS011;10249;48.900;9.090;2023-04-03T01:53:10;11.43;;;11.03;;
20179;SDS011;10249;48.900;9.090;2023-04-03T01:55:37;11.10;;;10.70;;
20179;SDS011;10249;48.900;9.090;2023-04-03T01:58:04;11.53;;;11.13;;
20179;SDS011;10249;48.900;9.090;2023-04-03T02:00:31;11.60;;;11.20;;
20179;SDS011;10249;48.900;9.090;2023-04-03T02:02:58;11.57;;;11.17;;
20179;SDS011;10249;48.900;9.090;2023-04-03T02:05:25;11.57;;;11.17;;
20179;SDS011;10249;48.900;9.090;2023-04-03T02:07:54;11.50;;;11.10;;
20179;SDS011;10249;48.900;9.090;2023-04-03T02:10:21;11.40;;;11.00;;
20179;SDS011;10249;48.900;9.090;2023-04-03T02:12:48;11.40;;;11.00;;
20179;SDS011;10249;48.900;9.090;2023-04-03T02:15:15;11.90;;;11.50;;
20179;SDS011;10249;48.900;9.090;2023-04-03T02:17:43;11.50;;;11.10;;
20179;SDS011;10249;48.900;9.090;2023-04-03T02:20:10;11.50;;;11.10;;
20179;SDS011;10249;48.900;9.090;2023-04-03T02:22:37;11.70;;;11.30;;
20179;SDS011;10249;48.900;9.090;2023-04-03T02:25:06;12.00;;;11.60;;
20179;SDS011;10249;48.900;9.090;2023-04-03T02:27:33;11.90;;;11.50;;
20179;SDS011;10249;48.900;9.090;2023-04-03T02:30:00;11.90;;;11.50;;
20179;SDS011;10249;48.900;9.090;2023-04-03T02:32:27;12.10;;;11.70;;
20179;SDS011;10249;48.900;9.090;2023-04-03T02:34:54;12.40;;;11.90;;
20179;SDS011;10249;48.900;9.090;2023-04-03T02:37:21;12.60;;;12.10;;
20179;SDS011;10249;48.900;9.090;2023-04-03T02:39:49;12.60;;;12.10;;
20179;SDS011;10249;48.900;9.090;2023-04-03T02:42:18;13.03;;;12.53;;
20179;SDS011;10249;48.900;9.090;2023-04-03T02:44:45;12.50;;;12.00;;
20179;SDS011;10249;48.900;9.090;2023-04-03T02:47:12;12.87;;;12.37;;
20179;SDS011;10249;48.900;9.090;2023-04-03T02:49:40;12.80;;;12.30;;
20179;SDS011;10249;48.900;9.090;2023-04-03T02:52:08;12.50;;;12.00;;
20179;SDS011;10249;48.900;9.090;2023-04-03T02:54:35;12.83;;;12.33;;
20179;SDS011;10249;48.900;9.090;2023-04-03T02:57:02;12.93;;;12.43;;
20179;SDS011;10249;48.900;9.090;2023-04-03T02:59:31;13.10;;;12.60;;
20179;SDS011;10249;48.900;9.090;2023-04-03T03:01:58;13.17;;;12.67;;
20179;SDS011;10249;48.900;9.090;2023-04-03T03:04:25;12.77;;;12.27;;
20179;SDS011;10249;48.900;9.090;2023-04-03T03:06:52;12.90;;;12.40;;
20179;SDS011;10249;48.900;9.090;2023-04-03T03:09:20;13.17;;;12.67;;
20179;SDS011;10249;48.900;9.090;2023-04-03T03:11:47;12.77;;;12.27;;
20179;SDS011;10249;48.900;9.090;2023-04-03T03:14:14;12.90;;;12.40;;
20179;SDS011;10249;48.900;9.090;2023-04-03T03:16:42;13.07;;;12.57;;
20179;SDS011;10249;48.900;9.090;2023-04-03T03:19:09;13.10;;;12.60;;
20179;SDS011;10249;48.900;9.090;2023-04-03T03:21:36;13.20;;;12.70;;
20179;SDS011;10249;48.900;9.090;2023-04-03T03:24:03;13.40;;;12.90;;
20179;SDS011;10249;48.900;9.090;2023-04-03T03:26:31;13.17;;;12.67;;
20179;SDS011;10249;48.900;9.090;2023-04-03T03:28:58;13.00;;;12.50;;
20179;SDS011;10249;48.900;9.090;2023-04-03T03:31:25;12.80;;;12.30;;
20179;SDS011;10249;48.900;9.090;2023-04-03T03:33:53;13.03;;;12.53;;
20179;SDS011;10249;48.900;9.090;2023-04-03T03:36:20;12.93;;;12.43;;
20179;SDS011;10249;48.900;9.090;2023-04-03T03:38:47;12.70;;;12.20;;
20179;SDS011;10249;48.900;9.090;2023-04-03T03:41:15;13.10;;;12.60;;
20179;SDS011;10249;48.900;9.090;2023-04-03T03:43:42;12.87;;;12.37;;
20179;SDS011;10249;48.900;9.090;2023-04-03T03:46:09;12.87;;;12.37;;
20179;SDS011;10249;48.900;9.090;2023-04-03T03:48:36;12.83;;;12.33;;
20179;SDS011;10249;48.900;9.090;2023-04-03T03:51:04;12.70;;;12.20;;
20179;SDS011;10249;48.900;9.090;2023-04-03T03:53:32;12.70;;;12.20;;
20179;SDS011;10249;48.900;9.090;2023-04-03T03:55:59;12.80;;;12.30;;
20179;SDS011;10249;48.900;9.090;2023-04-03T03:58:26;12.73;;;12.23;;
20179;SDS011;10249;48.900;9.090;2023-04-03T04:00:53;12.57;;;12.07;;
20179;SDS011;10249;48.900;9.090;2023-04-03T04:03:20;12.83;;;12.33;;
20179;SDS011;10249;48.900;9.090;2023-04-03T04:05:47;12.63;;;12.13;;
20179;SDS011;10249;48.900;9.090;2023-04-03T04:08:15;13.20;;;12.60;;
20179;SDS011;10249;48.900;9.090;2023-04-03T04:10:42;13.03;;;12.53;;
20179;SDS011;10249;48.900;9.090;2023-04-03T04:13:09;13.20;;;12.70;;
20179;SDS011;10249;48.900;9.090;2023-04-03T04:15:37;13.10;;;12.60;;
20179;SDS011;10249;48.900;9.090;2023-04-03T04:18:04;13.30;;;12.80;;
20179;SDS011;10249;48.900;9.090;2023-04-03T04:20:31;13.30;;;12.80;;
20179;SDS011;10249;48.900;9.090;2023-04-03T04:22:58;13.10;;;12.60;;
20179;SDS011;10249;48.900;9.090;2023-04-03T04:25:26;13.40;;;12.90;;
20179;SDS011;10249;48.900;9.090;2023-04-03T04:27:53;13.30;;;12.80;;
20179;SDS011;10249;48.900;9.090;2023-04-03T04:30:20;13.40;;;12.90;;
20179;SDS011;10249;48.900;9.090;2023-04-03T04:32:47;13.33;;;12.83;;
20179;SDS011;10249;48.900;9.090;2023-04-03T04:35:14;13.10;;;12.60;;
20179;SDS011;10249;48.900;9.090;2023-04-03T04:37:41;13.13;;;12.63;;
20179;SDS011;10249;48.900;9.090;2023-04-03T04:40:09;13.30;;;12.80;;
20179;SDS011;10249;48.900;9.090;2023-04-03T04:42:38;13.47;;;12.97;;
20179;SDS011;10249;48.900;9.090;2023-04-03T04:45:05;13.83;;;13.23;;
20179;SDS011;10249;48.900;9.090;2023-04-03T04:47:33;13.70;;;13.10;;
20179;SDS011;10249;48.900;9.090;2023-04-03T04:50:00;13.70;;;13.10;;
20179;SDS011;10249;48.900;9.090;2023-04-03T04:52:27;13.70;;;13.10;;
20179;SDS011;10249;48.900;9.090;2023-04-03T04:54:54;13.40;;;12.90;;
20179;SDS011;10249;48.900;9.090;2023-04-03T04:57:21;13.33;;;12.83;;
20179;SDS011;10249;48.900;9.090;2023-04-03T04:59:50;13.17;;;12.67;;
20179;SDS011;10249;48.900;9.090;2023-04-03T05:02:17;13.23;;;12.73;;
20179;SDS011;10249;48.900;9.090;2023-04-03T05:04:44;13.00;;;12.50;;
20179;SDS011;10249;48.900;9.090;2023-04-03T05:07:11;13.13;;;12.63;;
20179;SDS011;10249;48.900;9.090;2023-04-03T05:09:38;13.50;;;12.90;;
20179;SDS011;10249;48.900;9.090;2023-04-03T05:12:07;13.40;;;12.90;;
20179;SDS011;10249;48.900;9.090;2023-04-03T05:14:34;13.40;;;12.90;;
20179;SDS011;10249;48.900;9.090;2023-04-03T05:17:02;13.00;;;12.50;;
20179;SDS011;10249;48.900;9.090;2023-04-03T05:19:29;12.83;;;12.33;;
20179;SDS011;10249;48.900;9.090;2023-04-03T05:21:56;13.48;;;12.98;;
20179;SDS011;10249;48.900;9.090;2023-04-03T05:24:23;13.10;;;12.60;;
20179;SDS011;10249;48.900;9.090;2023-04-03T05:26:51;15.13;;;14.43;;
20179;SDS011;10249;48.900;9.090;2023-04-03T05:29:18;12.90;;;12.40;;
20179;SDS011;10249;48.900;9.090;2023-04-03T05:31:45;13.13;;;12.63;;
20179;SDS011;10249;48.900;9.090;2023-04-03T05:34:13;13.10;;;12.60;;
20179;SDS011;10249;48.900;9.090;2023-04-03T05:36:40;13.23;;;12.73;;
20179;SDS011;10249;48.900;9.090;2023-04-03T05:39:08;13.43;;;12.93;;
20179;SDS011;10249;48.900;9.090;2023-04-03T05:41:35;13.40;;;12.90;;
20179;SDS011;10249;48.900;9.090;2023-04-03T05:44:02;13.00;;;12.50;;
20179;SDS011;10249;48.900;9.090;2023-04-03T05:46:29;13.40;;;12.90;;
20179;SDS011;10249;48.900;9.090;2023-04-03T05:48:56;13.37;;;12.87;;
20179;SDS011;10249;48.900;9.090;2023-04-03T05:51:25;13.30;;;12.80;;
20179;SDS011;10249;48.900;9.090;2023-04-03T05:53:56;13.53;;;12.93;;
20179;SDS011;10249;48.900;9.090;2023-04-03T05:56:26;13.37;;;12.87;;
20179;SDS011;10249;48.900;9.090;2023-04-03T05:58:53;13.07;;;12.57;;
20179;SDS011;10249;48.900;9.090;2023-04-03T06:01:20;13.23;;;12.73;;
20179;SDS011;10249;48.900;9.090;2023-04-03T06:03:48;13.23;;;12.73;;
20179;SDS011;10249;48.900;9.090;2023-04-03T06:06:15;13.50;;;12.90;;
20179;SDS011;10249;48.900;9.090;2023-04-03T06:08:43;13.20;;;12.70;;
20179;SDS011;10249;48.900;9.090;2023-04-03T06:11:11;13.20;;;12.70;;
20179;SDS011;10249;48.900;9.090;2023-04-03T06:13:38;13.37;;;12.87;;
20179;SDS011;10249;48.900;9.090;2023-04-03T06:16:05;13.03;;;12.53;;
20179;SDS011;10249;48.900;9.090;2023-04-03T06:18:33;13.83;;;13.23;;
20179;SDS011;10249;48.900;9.090;2023-04-03T06:21:00;13.60;;;13.00;;
20179;SDS011;10249;48.900;9.090;2023-04-03T06:23:28;13.63;;;13.03;;
20179;SDS011;10249;48.900;9.090;2023-04-03T06:25:56;13.87;;;13.27;;
20179;SDS011;10249;48.900;9.090;2023-04-03T06:28:23;13.27;;;12.77;;
20179;SDS011;10249;48.900;9.090;2023-04-03T06:30:51;13.70;;;13.10;;
20179;SDS011;10249;48.900;9.090;2023-04-03T06:33:18;13.33;;;12.83;;
20179;SDS011;10249;48.900;9.090;2023-04-03T06:35:45;13.00;;;12.50;;
20179;SDS011;10249;48.900;9.090;2023-04-03T06:38:12;13.33;;;12.83;;
20179;SDS011;10249;48.900;9.090;2023-04-03T06:40:39;13.27;;;12.77;;
20179;SDS011;10249;48.900;9.090;2023-04-03T06:43:07;13.07;;;12.57;;
20179;SDS011;10249;48.900;9.090;2023-04-03T06:45:34;12.80;;;12.30;;
20179;SDS011;10249;48.900;9.090;2023-04-03T06:48:01;13.17;;;12.67;;
20179;SDS011;10249;48.900;9.090;2023-04-03T06:50:29;13.57;;;12.97;;
20179;SDS011;10249;48.900;9.090;2023-04-03T06:52:56;13.90;;;13.30;;
20179;SDS011;10249;48.900;9.090;2023-04-03T06:55:23;14.40;;;13.80;;
20179;SDS011;10249;48.900;9.090;2023-04-03T06:57:50;14.27;;;13.67;;
20179;SDS011;10249;48.900;9.090;2023-04-03T07:00:19;14.00;;;13.40;;
20179;SDS011;10249;48.900;9.090;2023-04-03T07:02:46;15.40;;;13.90;;
20179;SDS011;10249;48.900;9.090;2023-04-03T07:05:13;13.60;;;13.00;;
20179;SDS011;10249;48.900;9.090;2023-04-03T07:07:40;13.83;;;13.23;;
20179;SDS011;10249;48.900;9.090;2023-04-03T07:10:07;14.10;;;13.50;;
20179;SDS011;10249;48.900;9.090;2023-04-03T07:12:35;13.87;;;13.27;;
20179;SDS011;10249;48.900;9.090;2023-04-03T07:15:03;14.00;;;13.40;;
20179;SDS011;10249;48.900;9.090;2023-04-03T07:17:31;13.90;;;13.30;;
20179;SDS011;10249;48.900;9.090;2023-04-03T07:19:58;13.90;;;13.30;;
20179;SDS011;10249;48.900;9.090;2023-04-03T07:22:26;14.20;;;13.60;;
20179;SDS011;10249;48.900;9.090;2023-04-03T07:24:53;14.10;;;13.50;;
20179;SDS011;10249;48.900;9.090;2023-04-03T07:27:20;13.80;;;13.20;;
20179;SDS011;10249;48.900;9.090;2023-04-03T07:29:47;15.10;;;14.27;;
20179;SDS011;10249;48.900;9.090;2023-04-03T07:32:14;14.33;;;13.73;;
20179;SDS011;10249;48.900;9.090;2023-04-03T07:34:43;14.20;;;13.60;;
20179;SDS011;10249;48.900;9.090;2023-04-03T07:37:10;14.27;;;13.67;;
20179;SDS011;10249;48.900;9.090;2023-04-03T07:39:38;14.30;;;13.70;;
20179;SDS011;10249;48.900;9.090;2023-04-03T07:42:05;13.63;;;13.03;;
20179;SDS011;10249;48.900;9.090;2023-04-03T07:44:32;14.83;;;14.13;;
20179;SDS011;10249;48.900;9.090;2023-04-03T07:47:00;13.90;;;13.30;;
20179;SDS011;10249;48.900;9.090;2023-04-03T07:49:27;13.73;;;13.13;;
20179;SDS011;10249;48.900;9.090;2023-04-03T07:51:56;14.33;;;13.73;;
20179;SDS011;10249;48.900;9.090;2023-04-03T07:54:23;16.10;;;15.20;;
20179;SDS011;10249;48.900;9.090;2023-04-03T07:56:50;15.53;;;14.83;;
20179;SDS011;10249;48.900;9.090;2023-04-03T07:59:17;14.60;;;14.00;;
20179;SDS011;10249;48.900;9.090;2023-04-03T08:01:45;14.37;;;13.77;;
20179;SDS011;10249;48.900;9.090;2023-04-03T08:04:12;14.17;;;13.57;;
20179;SDS011;10249;48.900;9.090;2023-04-03T08:06:39;14.20;;;13.60;;
20179;SDS011;10249;48.900;9.090;2023-04-03T08:09:07;14.37;;;13.77;;
20179;SDS011;10249;48.900;9.090;2023-04-03T08:11:35;14.93;;;14.23;;
20179;SDS011;10249;48.900;9.090;2023-04-03T08:14:02;15.10;;;14.40;;
20179;SDS011;10249;48.900;9.090;2023-04-03T08:16:29;15.57;;;14.87;;
20179;SDS011;10249;48.900;9.090;2023-04-03T08:18:56;15.17;;;14.47;;
20179;SDS011;10249;48.900;9.090;2023-04-03T08:21:24;15.07;;;14.37;;
20179;SDS011;10249;48.900;9.090;2023-04-03T08:23:51;15.30;;;14.60;;
20179;SDS011;10249;48.900;9.090;2023-04-03T08:26:20;15.20;;;14.50;;
20179;SDS011;10249;48.900;9.090;2023-04-03T08:28:47;16.83;;;16.03;;
20179;SDS011;10249;48.900;9.090;2023-04-03T08:31:16;15.40;;;14.70;;
20179;SDS011;10249;48.900;9.090;2023-04-03T08:33:43;14.77;;;14.13;;
20179;SDS011;10249;48.900;9.090;2023-04-03T08:36:16;15.00;;;14.30;;
20179;SDS011;10249;48.900;9.090;2023-04-03T08:38:43;15.27;;;14.57;;
20179;SDS011;10249;48.900;9.090;2023-04-03T08:41:12;15.40;;;14.70;;
20179;SDS011;10249;48.900;9.090;2023-04-03T08:43:44;15.23;;;14.53;;
20179;SDS011;10249;48.900;9.090;2023-04-03T08:46:13;15.63;;;14.93;;
20179;SDS011;10249;48.900;9.090;2023-04-03T08:48:41;15.77;;;15.07;;
20179;SDS011;10249;48.900;9.090;2023-04-03T08:51:10;15.50;;;14.80;;
20179;SDS011;10249;48.900;9.090;2023-04-03T08:53:40;15.53;;;14.83;;
20179;SDS011;10249;48.900;9.090;2023-04-03T08:56:09;15.47;;;14.77;;
20179;SDS011;10249;48.900;9.090;2023-04-03T08:58:41;15.30;;;14.60;;
20179;SDS011;10249;48.900;9.090;2023-04-03T09:01:14;15.37;;;14.67;;
20179;SDS011;10249;48.900;9.090;2023-04-03T09:03:43;16.40;;;15.50;;
20179;SDS011;10249;48.900;9.090;2023-04-03T09:06:11;15.13;;;14.43;;
20179;SDS011;10249;48.900;9.090;2023-04-03T09:08:40;16.00;;;15.30;;
20179;SDS011;10249;48.900;9.090;2023-04-03T09:11:12;15.70;;;15.00;;
20179;SDS011;10249;48.900;9.090;2023-04-03T09:13:44;15.77;;;15.07;;
20179;SDS011;10249;48.900;9.090;2023-04-03T09:16:21;15.70;;;15.00;;
20179;SDS011;10249;48.900;9.090;2023-04-03T09:18:53;15.23;;;14.53;;
20179;SDS011;10249;48.900;9.090;2023-04-03T09:21:23;15.30;;;14.60;;
20179;SDS011;10249;48.900;9.090;2023-04-03T09:23:52;15.90;;;15.13;;
20179;SDS011;10249;48.900;9.090;2023-04-03T09:26:21;15.33;;;14.63;;
20179;SDS011;10249;48.900;9.090;2023-04-03T09:28:51;15.13;;;14.43;;
20179;SDS011;10249;48.900;9.090;2023-04-03T09:31:21;15.63;;;14.93;;
20179;SDS011;10249;48.900;9.090;2023-04-03T09:33:49;15.30;;;14.60;;
20179;SDS011;10249;48.900;9.090;2023-04-03T09:39:02;15.90;;;15.10;;
20179;SDS011;10249;48.900;9.090;2023-04-03T09:41:30;15.23;;;14.53;;
20179;SDS011;10249;48.900;9.090;2023-04-03T09:43:58;15.60;;;14.90;;
20179;SDS011;10249;48.900;9.090;2023-04-03T09:46:30;15.37;;;14.67;;
20179;SDS011;10249;48.900;9.090;2023-04-03T09:48:58;15.20;;;14.50;;
20179;SDS011;10249;48.900;9.090;2023-04-03T09:51:26;15.47;;;14.77;;
20179;SDS011;10249;48.900;9.090;2023-04-03T09:53:54;15.00;;;14.30;;
20179;SDS011;10249;48.900;9.090;2023-04-03T09:56:22;15.17;;;14.47;;
20179;SDS011;10249;48.900;9.090;2023-04-03T09:58:51;15.43;;;14.63;;
20179;SDS011;10249;48.900;9.090;2023-04-03T10:01:27;15.30;;;14.60;;
20179;SDS011;10249;48.900;9.090;2023-04-03T10:04:06;15.30;;;14.60;;
20179;SDS011;10249;48.900;9.090;2023-04-03T10:06:34;14.87;;;14.17;;
20179;SDS011;10249;48.900;9.090;2023-04-03T10:09:03;14.70;;;14.00;;
20179;SDS011;10249;48.900;9.090;2023-04-03T10:11:30;14.90;;;14.20;;
20179;SDS011;10249;48.900;9.090;2023-04-03T10:13:59;15.20;;;14.50;;
20179;SDS011;10249;48.900;9.090;2023-04-03T10:16:27;14.97;;;14.27;;
20179;SDS011;10249;48.900;9.090;2023-04-03T10:19:00;15.50;;;14.70;;
20179;SDS011;10249;48.900;9.090;2023-04-03T10:21:35;15.20;;;14.50;;
20179;SDS011;10249;48.900;9.090;2023-04-03T10:24:09;14.93;;;14.23;;
20179;SDS011;10249;48.900;9.090;2023-04-03T10:26:39;15.00;;;14.30;;
20179;SDS011;10249;48.900;9.090;2023-04-03T10:29:13;17.03;;;15.93;;
20179;SDS011;10249;48.900;9.090;2023-04-03T10:31:44;15.50;;;14.80;;
20179;SDS011;10249;48.900;9.090;2023-04-03T10:34:15;15.00;;;14.30;;
20179;SDS011;10249;48.900;9.090;2023-04-03T10:36:47;15.23;;;14.53;;
20179;SDS011;10249;48.900;9.090;2023-04-03T10:39:19;15.83;;;15.03;;
20179;SDS011;10249;48.900;9.090;2023-04-03T10:41:52;15.23;;;14.53;;
20179;SDS011;10249;48.900;9.090;2023-04-03T10:44:24;15.60;;;14.90;;
20179;SDS011;10249;48.900;9.090;2023-04-03T10:46:57;15.40;;;14.70;;
20179;SDS011;10249;48.900;9.090;2023-04-03T10:49:31;15.60;;;14.90;;
20179;SDS011;10249;48.900;9.090;2023-04-03T10:52:02;16.07;;;15.27;;
20179;SDS011;10249;48.900;9.090;2023-04-03T10:54:32;16.27;;;15.47;;
20179;SDS011;10249;48.900;9.090;2023-04-03T10:57:03;16.07;;;15.30;;
20179;SDS011;10249;48.900;9.090;2023-04-03T10:59:32;16.27;;;15.47;;
20179;SDS011;10249;48.900;9.090;2023-04-03T11:02:00;16.20;;;15.40;;
20179;SDS011;10249;48.900;9.090;2023-04-03T11:04:29;15.87;;;15.07;;
20179;SDS011;10249;48.900;9.090;2023-04-03T11:06:59;15.53;;;14.83;;
20179;SDS011;10249;48.900;9.090;2023-04-03T11:09:28;15.90;;;15.00;;
20179;SDS011;10249;48.900;9.090;2023-04-03T11:11:58;15.43;;;14.73;;
20179;SDS011;10249;48.900;9.090;2023-04-03T11:14:28;16.63;;;15.83;;
20179;SDS011;10249;48.900;9.090;2023-04-03T11:16:59;15.27;;;14.57;;
20179;SDS011;10249;48.900;9.090;2023-04-03T11:19:31;16.43;;;15.63;;
20179;SDS011;10249;48.900;9.090;2023-04-03T11:22:01;15.60;;;14.90;;
20179;SDS011;10249;48.900;9.090;2023-04-03T11:24:31;15.73;;;15.03;;
20179;SDS011;10249;48.900;9.090;2023-04-03T11:26:59;17.10;;;15.87;;
20179;SDS011;10249;48.900;9.090;2023-04-03T11:29:29;15.57;;;14.63;;
20179;SDS011;10249;48.900;9.090;2023-04-03T11:32:02;16.83;;;15.43;;
20179;SDS011;10249;48.900;9.090;2023-04-03T11:34:33;15.20;;;14.50;;
20179;SDS011;10249;48.900;9.090;2023-04-03T11:37:04;15.63;;;14.93;;
20179;SDS011;10249;48.900;9.090;2023-04-03T11:39:35;15.93;;;15.13;;
20179;SDS011;10249;48.900;9.090;2023-04-03T11:42:13;15.93;;;15.13;;
20179;SDS011;10249;48.900;9.090;2023-04-03T11:44:41;16.10;;;15.30;;
20179;SDS011;10249;48.900;9.090;2023-04-03T11:47:09;15.80;;;15.00;;
20179;SDS011;10249;48.900;9.090;2023-04-03T11:49:56;15.90;;;15.10;;
20179;SDS011;10249;48.900;9.090;2023-04-03T11:58:10;15.90;;;15.10;;
20179;SDS011;10249;48.900;9.090;2023-04-03T12:00:46;15.17;;;14.47;;
20179;SDS011;10249;48.900;9.090;2023-04-03T12:09:00;15.40;;;14.70;;
20179;SDS011;10249;48.900;9.090;2023-04-03T12:11:29;16.10;;;15.20;;
20179;SDS011;10249;48.900;9.090;2023-04-03T12:14:04;16.20;;;15.40;;
20179;SDS011;10249;48.900;9.090;2023-04-03T12:16:32;15.90;;;15.10;;
20179;SDS011;10249;48.900;9.090;2023-04-03T12:19:00;15.80;;;15.00;;
20179;SDS011;10249;48.900;9.090;2023-04-03T12:24:26;15.97;;;15.17;;
20179;SDS011;10249;48.900;9.090;2023-04-03T12:27:05;15.80;;;15.00;;
20179;SDS011;10249;48.900;9.090;2023-04-03T12:29:34;15.63;;;14.87;;
20179;SDS011;10249;48.900;9.090;2023-04-03T12:32:07;15.50;;;14.73;;
20179;SDS011;10249;48.900;9.090;2023-04-03T12:34:41;15.90;;;15.10;;
20179;SDS011;10249;48.900;9.090;2023-04-03T12:37:17;15.77;;;14.97;;
20179;SDS011;10249;48.900;9.090;2023-04-03T12:39:50;16.20;;;15.40;;
20179;SDS011;10249;48.900;9.090;2023-04-03T12:45:12;15.43;;;14.63;;
20179;SDS011;10249;48.900;9.090;2023-04-03T12:47:43;15.70;;;14.90;;
20179;SDS011;10249;48.900;9.090;2023-04-03T12:50:17;15.90;;;15.10;;
20179;SDS011;10249;48.900;9.090;2023-04-03T12:52:47;15.97;;;15.17;;
20179;SDS011;10249;48.900;9.090;2023-04-03T12:55:17;15.90;;;15.10;;
20179;SDS011;10249;48.900;9.090;2023-04-03T12:57:45;15.67;;;14.87;;
20179;SDS011;10249;48.900;9.090;2023-04-03T13:00:21;16.87;;;15.97;;
20179;SDS011;10249;48.900;9.090;2023-04-03T13:02:48;16.10;;;15.30;;
20179;SDS011;10249;48.900;9.090;2023-04-03T13:05:16;15.80;;;15.00;;
20179;SDS011;10249;48.900;9.090;2023-04-03T13:07:45;15.70;;;14.90;;
20179;SDS011;10249;48.900;9.090;2023-04-03T13:10:16;15.90;;;15.10;;
20179;SDS011;10249;48.900;9.090;2023-04-03T13:12:48;15.77;;;14.97;;
20179;SDS011;10249;48.900;9.090;2023-04-03T13:15:16;15.63;;;14.83;;
20179;SDS011;10249;48.900;9.090;2023-04-03T13:17:45;15.93;;;15.13;;
20179;SDS011;10249;48.900;9.090;2023-04-03T13:20:17;16.33;;;15.53;;
20179;SDS011;10249;48.900;9.090;2023-04-03T13:22:47;16.27;;;15.47;;
20179;SDS011;10249;48.900;9.090;2023-04-03T13:25:15;16.30;;;15.50;;
20179;SDS011;10249;48.900;9.090;2023-04-03T13:27:42;16.43;;;15.57;;
20179;SDS011;10249;48.900;9.090;2023-04-03T13:30:20;16.10;;;15.30;;
20179;SDS011;10249;48.900;9.090;2023-04-03T13:32:49;16.00;;;15.20;;
20179;SDS011;10249;48.900;9.090;2023-04-03T13:35:27;15.70;;;14.90;;
20179;SDS011;10249;48.900;9.090;2023-04-03T13:37:56;16.70;;;15.80;;
20179;SDS011;10249;48.900;9.090;2023-04-03T13:40:25;16.47;;;15.67;;
20179;SDS011;10249;48.900;9.090;2023-04-03T13:42:59;16.30;;;15.50;;
20179;SDS011;10249;48.900;9.090;2023-04-03T13:45:27;16.40;;;15.60;;
20179;SDS011;10249;48.900;9.090;2023-04-03T13:48:08;16.17;;;15.37;;
20179;SDS011;10249;48.900;9.090;2023-04-03T13:50:49;16.70;;;15.70;;
20179;SDS011;10249;48.900;9.090;2023-04-03T13:53:17;16.17;;;15.37;;
20179;SDS011;10249;48.900;9.090;2023-04-03T13:55:55;16.10;;;15.30;;
20179;SDS011;10249;48.900;9.090;2023-04-03T13:58:22;16.30;;;15.50;;
20179;SDS011;10249;48.900;9.090;2023-04-03T14:00:51;16.03;;;15.23;;
20179;SDS011;10249;48.900;9.090;2023-04-03T14:03:22;16.03;;;15.23;;
20179;SDS011;10249;48.900;9.090;2023-04-03T14:05:49;16.07;;;15.27;;
20179;SDS011;10249;48.900;9.090;2023-04-03T14:08:16;16.33;;;15.53;;
20179;SDS011;10249;48.900;9.090;2023-04-03T14:10:44;16.17;;;15.37;;
20179;SDS011;10249;48.900;9.090;2023-04-03T14:13:12;16.30;;;15.50;;
20179;SDS011;10249;48.900;9.090;2023-04-03T14:15:40;16.50;;;15.70;;
20179;SDS011;10249;48.900;9.090;2023-04-03T14:18:10;17.00;;;16.10;;
20179;SDS011;10249;48.900;9.090;2023-04-03T14:20:38;16.47;;;15.67;;
20179;SDS011;10249;48.900;9.090;2023-04-03T14:23:05;16.57;;;15.77;;
20179;SDS011;10249;48.900;9.090;2023-04-03T14:25:33;16.27;;;15.47;;
20179;SDS011;10249;48.900;9.090;2023-04-03T14:28:00;16.40;;;15.50;;
20179;SDS011;10249;48.900;9.090;2023-04-03T14:30:29;16.10;;;15.30;;
20179;SDS011;10249;48.900;9.090;2023-04-03T14:32:56;16.33;;;15.33;;
20179;SDS011;10249;48.900;9.090;2023-04-03T14:35:24;16.20;;;15.40;;
20179;SDS011;10249;48.900;9.090;2023-04-03T14:37:53;16.70;;;15.80;;
20179;SDS011;10249;48.900;9.090;2023-04-03T14:40:22;16.30;;;15.50;;
20179;SDS011;10249;48.900;9.090;2023-04-03T14:42:50;15.97;;;15.17;;
20179;SDS011;10249;48.900;9.090;2023-04-03T14:45:20;16.33;;;15.53;;
20179;SDS011;10249;48.900;9.090;2023-04-03T14:47:48;17.13;;;16.23;;
20179;SDS011;10249;48.900;9.090;2023-04-03T14:50:18;16.90;;;16.00;;